createdAt,value
2018-11-13T00:00:31.868Z,9.83
2018-11-13T00:01:09.747Z,9.37
2018-11-13T00:01:48.566Z,12.93
2018-11-13T00:02:26.613Z,10.63
2018-11-13T00:03:05.520Z,12.20
2018-11-13T00:03:43.256Z,10.13
2018-11-13T00:04:21.359Z,18.83
2018-11-13T00:04:59.234Z,12.27
2018-11-13T00:05:37.219Z,9.60
2018-11-13T00:06:15.261Z,20.45
2018-11-13T00:06:53.131Z,6.23
2018-11-13T00:07:31.175Z,11.13
2018-11-13T00:08:09.017Z,9.00
2018-11-13T00:08:46.880Z,13.63
2018-11-13T00:09:24.761Z,9.47
2018-11-13T00:10:02.906Z,15.07
2018-11-13T00:10:40.760Z,13.93
2018-11-13T00:11:18.881Z,13.57
2018-11-13T00:11:57.032Z,13.90
2018-11-13T00:12:35.035Z,10.60
2018-11-13T00:13:12.835Z,12.00
2018-11-13T00:13:50.895Z,7.03
2018-11-13T00:14:28.720Z,17.50
2018-11-13T00:15:06.617Z,17.93
2018-11-13T00:15:44.511Z,8.97
2018-11-13T00:16:22.400Z,20.30
2018-11-13T00:17:00.348Z,8.60
2018-11-13T00:17:38.853Z,16.37
2018-11-13T00:18:16.778Z,23.17
2018-11-13T00:18:55.212Z,7.23
2018-11-13T00:19:33.276Z,11.67
2018-11-13T00:20:14.428Z,11.10
2018-11-13T00:20:52.203Z,11.17
2018-11-13T00:21:30.335Z,9.30
2018-11-13T00:22:08.429Z,7.30
2018-11-13T00:22:46.782Z,13.93
2018-11-13T00:23:24.747Z,11.53
2018-11-13T00:24:02.819Z,13.50
2018-11-13T00:24:40.771Z,12.30
2018-11-13T00:25:19.656Z,20.03
2018-11-13T00:25:57.643Z,11.33
2018-11-13T00:26:35.782Z,10.60
2018-11-13T00:27:13.565Z,9.63
2018-11-13T00:27:51.637Z,9.37
2018-11-13T00:28:29.508Z,9.13
2018-11-13T00:29:07.548Z,8.43
2018-11-13T00:29:45.663Z,10.20
2018-11-13T00:30:24.922Z,12.13
2018-11-13T00:31:02.695Z,10.37
2018-11-13T00:31:42.086Z,11.83
2018-11-13T00:32:20.007Z,8.33
2018-11-13T00:32:57.895Z,7.23
2018-11-13T00:33:35.815Z,8.73
2018-11-13T00:34:13.575Z,7.10
2018-11-13T00:34:51.671Z,10.53
2018-11-13T00:35:29.575Z,13.40
2018-11-13T00:36:07.786Z,6.50
2018-11-13T00:36:45.709Z,8.70
2018-11-13T00:37:23.733Z,20.40
2018-11-13T00:38:01.878Z,11.40
2018-11-13T00:38:39.659Z,10.13
2018-11-13T00:39:17.871Z,7.43
2018-11-13T00:39:55.604Z,6.53
2018-11-13T00:40:34.189Z,10.17
2018-11-13T00:41:12.230Z,7.60
2018-11-13T00:41:50.385Z,7.67
2018-11-13T00:42:28.240Z,14.30
2018-11-13T00:43:06.023Z,13.07
2018-11-13T00:43:44.081Z,7.67
2018-11-13T00:44:22.169Z,9.67
2018-11-13T00:45:00.977Z,8.17
2018-11-13T00:45:38.823Z,9.17
2018-11-13T00:46:16.856Z,8.07
2018-11-13T00:46:54.679Z,6.50
2018-11-13T00:47:32.568Z,7.60
2018-11-13T00:48:10.480Z,13.10
2018-11-13T00:48:48.323Z,12.83
2018-11-13T00:49:26.552Z,7.03
2018-11-13T00:50:04.721Z,7.33
2018-11-13T00:50:42.575Z,7.77
2018-11-13T00:51:20.556Z,8.83
2018-11-13T00:51:58.538Z,14.77
2018-11-13T00:52:36.389Z,14.33
2018-11-13T00:53:14.208Z,14.23
2018-11-13T00:53:53.113Z,9.47
2018-11-13T00:54:31.039Z,12.90
2018-11-13T00:55:09.049Z,9.00
2018-11-13T00:55:46.978Z,8.03
2018-11-13T00:56:25.803Z,16.33
2018-11-13T00:57:03.960Z,13.07
2018-11-13T00:57:42.904Z,7.20
2018-11-13T00:58:20.866Z,11.33
2018-11-13T00:58:59.016Z,8.03
2018-11-13T00:59:37.180Z,8.60
2018-11-13T01:00:17.879Z,14.40
2018-11-13T01:00:56.216Z,10.17
2018-11-13T01:01:34.015Z,7.80
2018-11-13T01:02:13.679Z,11.53
2018-11-13T01:02:51.489Z,9.83
2018-11-13T01:03:29.359Z,8.17
2018-11-13T01:04:07.581Z,7.17
2018-11-13T01:04:45.611Z,9.40
2018-11-13T01:05:23.766Z,8.97
2018-11-13T01:06:01.775Z,12.10
2018-11-13T01:06:39.969Z,8.73
2018-11-13T01:07:17.804Z,7.80
2018-11-13T01:07:55.800Z,6.63
2018-11-13T01:08:33.636Z,11.83
2018-11-13T01:09:12.992Z,11.37
2018-11-13T01:09:51.963Z,10.23
2018-11-13T01:10:29.747Z,6.90
2018-11-13T01:11:07.810Z,8.93
2018-11-13T01:11:45.748Z,7.80
2018-11-13T01:12:23.610Z,8.20
2018-11-13T01:13:01.661Z,7.23
2018-11-13T01:13:39.570Z,6.70
2018-11-13T01:14:17.383Z,6.90
2018-11-13T01:14:55.280Z,21.43
2018-11-13T01:15:33.343Z,14.27
2018-11-13T01:16:11.626Z,7.00
2018-11-13T01:16:49.539Z,14.83
2018-11-13T01:17:27.498Z,12.87
2018-11-13T01:18:05.542Z,21.37
2018-11-13T01:18:43.439Z,7.17
2018-11-13T01:19:21.288Z,6.63
2018-11-13T01:19:59.082Z,10.07
2018-11-13T01:20:38.026Z,7.00
2018-11-13T01:21:16.074Z,7.90
2018-11-13T01:21:55.346Z,10.10
2018-11-13T01:22:33.727Z,10.50
2018-11-13T01:23:11.667Z,13.13
2018-11-13T01:23:49.879Z,13.53
2018-11-13T01:24:27.719Z,13.80
2018-11-13T01:25:05.749Z,6.23
2018-11-13T01:25:43.652Z,9.37
2018-11-13T01:26:21.709Z,6.23
2018-11-13T01:26:59.557Z,5.83
2018-11-13T01:27:37.665Z,5.50
2018-11-13T01:28:15.753Z,9.88
2018-11-13T01:28:53.849Z,13.60
2018-11-13T01:29:31.912Z,6.20
2018-11-13T01:30:12.004Z,8.23
2018-11-13T01:30:49.956Z,13.43
2018-11-13T01:31:27.914Z,12.33
2018-11-13T01:32:05.756Z,8.53
2018-11-13T01:32:44.379Z,9.17
2018-11-13T01:33:22.371Z,11.03
2018-11-13T01:34:00.163Z,6.23
2018-11-13T01:34:39.079Z,11.33
2018-11-13T01:35:18.493Z,11.60
2018-11-13T01:35:56.423Z,8.10
2018-11-13T01:36:34.274Z,6.87
2018-11-13T01:37:12.075Z,12.03
2018-11-13T01:37:50.075Z,8.77
2018-11-13T01:38:27.909Z,7.53
2018-11-13T01:39:06.433Z,9.40
2018-11-13T01:39:44.261Z,5.20
2018-11-13T01:40:23.349Z,15.10
2018-11-13T01:41:01.223Z,6.50
2018-11-13T01:41:40.061Z,7.87
2018-11-13T01:42:18.370Z,7.53
2018-11-13T01:42:56.220Z,8.27
2018-11-13T01:43:35.074Z,5.37
2018-11-13T01:44:13.198Z,9.40
2018-11-13T01:44:51.141Z,5.93
2018-11-13T01:45:29.235Z,5.70
2018-11-13T01:46:07.134Z,5.23
2018-11-13T01:46:44.991Z,6.47
2018-11-13T01:47:22.974Z,10.27
2018-11-13T01:48:01.113Z,12.03
2018-11-13T01:48:39.089Z,8.73
2018-11-13T01:49:17.070Z,4.77
2018-11-13T01:49:54.949Z,4.97
2018-11-13T01:50:32.904Z,5.97
2018-11-13T01:51:10.771Z,6.97
2018-11-13T01:51:48.658Z,14.97
2018-11-13T01:52:26.922Z,6.67
2018-11-13T01:53:05.726Z,16.10
2018-11-13T01:53:43.574Z,5.63
2018-11-13T01:54:22.009Z,8.93
2018-11-13T01:55:00.751Z,5.30
2018-11-13T01:55:38.616Z,7.30
2018-11-13T01:56:16.414Z,8.07
2018-11-13T01:56:54.283Z,7.80
2018-11-13T01:57:32.375Z,8.73
2018-11-13T01:58:10.455Z,8.03
2018-11-13T01:58:48.405Z,11.90
2018-11-13T01:59:26.534Z,11.00
2018-11-13T02:00:04.462Z,6.10
2018-11-13T02:00:42.260Z,8.53
2018-11-13T02:01:20.077Z,13.63
2018-11-13T02:01:58.227Z,13.00
2018-11-13T02:02:36.098Z,13.30
2018-11-13T02:03:14.044Z,8.37
2018-11-13T02:03:51.921Z,9.80
2018-11-13T02:04:30.379Z,12.50
2018-11-13T02:05:08.280Z,8.60
2018-11-13T02:05:46.219Z,9.17
2018-11-13T02:06:24.269Z,10.57
2018-11-13T02:07:02.058Z,6.40
2018-11-13T02:07:40.302Z,9.87
2018-11-13T02:08:18.113Z,6.93
2018-11-13T02:08:55.946Z,8.00
2018-11-13T02:09:33.868Z,10.33
2018-11-13T02:10:12.048Z,6.97
2018-11-13T02:10:49.873Z,7.47
2018-11-13T02:11:27.982Z,11.43
2018-11-13T02:12:05.896Z,15.53
2018-11-13T02:12:43.866Z,15.73
2018-11-13T02:13:21.721Z,6.97
2018-11-13T02:13:59.770Z,9.10
2018-11-13T02:14:37.774Z,7.40
2018-11-13T02:15:15.830Z,10.23
2018-11-13T02:15:53.821Z,14.67
2018-11-13T02:16:31.764Z,18.40
2018-11-13T02:17:09.657Z,12.87
2018-11-13T02:17:47.589Z,10.73
2018-11-13T02:18:25.428Z,13.63
2018-11-13T02:19:03.219Z,13.57
2018-11-13T02:19:41.281Z,14.30
2018-11-13T02:20:20.955Z,11.17
2018-11-13T02:20:58.835Z,7.17
2018-11-13T02:21:36.963Z,7.87
2018-11-13T02:22:17.184Z,8.93
2018-11-13T02:22:55.026Z,20.77
2018-11-13T02:23:32.908Z,16.93
2018-11-13T02:24:12.077Z,11.30
2018-11-13T02:24:49.964Z,13.83
2018-11-13T02:25:27.879Z,7.77
2018-11-13T02:26:06.137Z,7.57
2018-11-13T02:26:44.122Z,10.07
2018-11-13T02:27:22.042Z,11.40
2018-11-13T02:27:59.934Z,11.67
2018-11-13T02:28:37.953Z,8.80
2018-11-13T02:29:15.932Z,11.00
2018-11-13T02:29:54.011Z,7.37
2018-11-13T02:30:32.009Z,7.77
2018-11-13T02:31:10.199Z,13.13
2018-11-13T02:31:48.199Z,11.00
2018-11-13T02:32:26.081Z,8.77
2018-11-13T02:33:05.198Z,9.43
2018-11-13T02:33:43.420Z,9.43
2018-11-13T02:34:21.496Z,7.50
2018-11-13T02:34:59.369Z,9.57
2018-11-13T02:35:37.408Z,11.60
2018-11-13T02:36:58.719Z,13.53
2018-11-13T02:37:36.947Z,12.37
2018-11-13T02:38:15.569Z,12.13
2018-11-13T02:38:53.492Z,11.50
2018-11-13T02:39:31.310Z,11.03
2018-11-13T02:40:09.526Z,10.67
2018-11-13T02:40:47.474Z,11.60
2018-11-13T02:41:27.329Z,13.83
2018-11-13T02:42:05.396Z,10.60
2018-11-13T02:42:43.248Z,10.80
2018-11-13T02:43:21.628Z,15.17
2018-11-13T02:44:00.386Z,8.13
2018-11-13T02:44:38.255Z,8.63
2018-11-13T02:45:19.378Z,18.70
2018-11-13T02:45:57.383Z,8.67
2018-11-13T02:46:35.395Z,7.50
2018-11-13T02:47:13.365Z,8.43
2018-11-13T02:47:51.754Z,14.43
2018-11-13T02:48:29.690Z,15.00
2018-11-13T02:49:08.375Z,7.47
2018-11-13T02:49:46.351Z,7.50
2018-11-13T02:50:24.575Z,9.07
2018-11-13T02:51:02.739Z,14.00
2018-11-13T02:51:40.591Z,8.23
2018-11-13T02:52:18.494Z,17.03
2018-11-13T02:52:57.558Z,12.17
2018-11-13T02:53:35.481Z,7.60
2018-11-13T02:54:13.377Z,14.83
2018-11-13T02:54:51.277Z,12.33
2018-11-13T02:55:29.100Z,12.33
2018-11-13T02:56:07.097Z,11.70
2018-11-13T02:56:45.363Z,9.77
2018-11-13T02:57:23.280Z,12.43
2018-11-13T02:58:01.368Z,14.40
2018-11-13T02:58:39.258Z,15.07
2018-11-13T02:59:17.527Z,11.70
2018-11-13T02:59:55.446Z,18.07
2018-11-13T03:00:33.358Z,12.10
2018-11-13T03:01:11.420Z,16.87
2018-11-13T03:01:49.243Z,15.20
2018-11-13T03:02:27.252Z,10.90
2018-11-13T03:03:05.311Z,15.00
2018-11-13T03:03:43.284Z,11.43
2018-11-13T03:04:21.063Z,12.13
2018-11-13T03:04:58.925Z,22.97
2018-11-13T03:06:41.355Z,8.60
2018-11-13T03:07:19.388Z,15.50
2018-11-13T03:07:57.453Z,11.47
2018-11-13T03:08:35.428Z,15.10
2018-11-13T03:09:13.298Z,9.70
2018-11-13T03:09:51.315Z,8.97
2018-11-13T03:10:29.363Z,21.27
2018-11-13T03:11:07.270Z,24.20
2018-11-13T03:11:45.367Z,11.40
2018-11-13T03:12:23.224Z,14.13
2018-11-13T03:13:01.090Z,18.47
2018-11-13T03:13:38.980Z,16.40
2018-11-13T03:14:17.760Z,11.47
2018-11-13T03:14:55.631Z,23.83
2018-11-13T03:15:33.571Z,13.30
2018-11-13T03:16:12.763Z,22.63
2018-11-13T03:16:51.036Z,16.37
2018-11-13T03:17:28.949Z,18.97
2018-11-13T03:18:07.126Z,20.47
2018-11-13T03:18:45.217Z,17.83
2018-11-13T03:19:24.243Z,15.57
2018-11-13T03:20:02.047Z,22.63
2018-11-13T03:20:40.182Z,12.90
2018-11-13T03:21:18.917Z,21.77
2018-11-13T03:21:57.038Z,11.67
2018-11-13T03:22:34.840Z,24.67
2018-11-13T03:23:12.819Z,18.00
2018-11-13T03:23:50.754Z,20.60
2018-11-13T03:24:28.986Z,18.83
2018-11-13T03:25:07.170Z,20.83
2018-11-13T03:25:45.057Z,14.37
2018-11-13T03:26:23.365Z,17.10
2018-11-13T03:27:01.439Z,16.40
2018-11-13T03:27:43.191Z,26.93
2018-11-13T03:28:22.199Z,25.03
2018-11-13T03:29:00.068Z,17.80
2018-11-13T03:29:37.869Z,18.50
2018-11-13T03:30:19.621Z,23.27
2018-11-13T03:30:57.588Z,34.07
2018-11-13T03:31:35.877Z,13.50
2018-11-13T03:32:13.883Z,21.83
2018-11-13T03:32:51.806Z,20.27
2018-11-13T03:33:29.802Z,17.47
2018-11-13T03:34:08.565Z,25.53
2018-11-13T03:34:46.668Z,14.13
2018-11-13T03:35:25.334Z,23.30
2018-11-13T03:36:04.622Z,22.00
2018-11-13T03:36:42.777Z,22.87
2018-11-13T03:37:21.781Z,17.93
2018-11-13T03:38:00.821Z,25.17
2018-11-13T03:38:38.931Z,27.10
2018-11-13T03:39:16.817Z,25.97
2018-11-13T03:39:54.657Z,17.90
2018-11-13T03:40:33.903Z,19.70
2018-11-13T03:41:11.799Z,25.07
2018-11-13T03:41:49.611Z,28.67
2018-11-13T03:42:27.494Z,29.00
2018-11-13T03:43:05.336Z,23.77
2018-11-13T03:43:44.056Z,25.63
2018-11-13T03:44:22.023Z,16.40
2018-11-13T03:45:00.024Z,21.33
2018-11-13T03:45:37.972Z,21.00
2018-11-13T03:46:15.992Z,21.07
2018-11-13T03:46:54.102Z,21.73
2018-11-13T03:47:32.130Z,19.87
2018-11-13T03:48:10.401Z,28.57
2018-11-13T03:48:48.412Z,19.27
2018-11-13T03:49:26.358Z,29.00
2018-11-13T03:50:04.475Z,22.83
2018-11-13T03:50:42.496Z,21.37
2018-11-13T03:51:20.527Z,24.40
2018-11-13T03:51:58.936Z,16.63
2018-11-13T03:52:36.760Z,25.53
2018-11-13T03:53:15.215Z,16.63
2018-11-13T03:53:53.102Z,20.23
2018-11-13T03:54:30.852Z,25.10
2018-11-13T03:55:09.603Z,22.80
2018-11-13T03:55:47.606Z,26.47
2018-11-13T03:56:25.522Z,19.33
2018-11-13T03:57:03.452Z,24.83
2018-11-13T03:57:42.429Z,24.93
2018-11-13T03:58:20.361Z,18.87
2018-11-13T03:58:58.240Z,20.97
2018-11-13T03:59:36.151Z,23.23
2018-11-13T04:00:23.742Z,17.20
2018-11-13T04:01:01.633Z,17.03
2018-11-13T04:01:39.595Z,22.17
2018-11-13T04:02:17.476Z,24.60
2018-11-13T04:02:55.347Z,24.93
2018-11-13T04:03:33.123Z,17.93
2018-11-13T04:04:17.044Z,22.77
2018-11-13T04:04:55.471Z,24.20
2018-11-13T04:05:35.095Z,23.07
2018-11-13T04:06:14.686Z,25.87
2018-11-13T04:06:52.659Z,19.73
2018-11-13T04:07:30.508Z,25.40
2018-11-13T04:08:08.638Z,23.13
2018-11-13T04:08:46.688Z,24.23
2018-11-13T04:09:24.623Z,22.70
2018-11-13T04:10:02.603Z,25.93
2018-11-13T04:10:40.483Z,27.80
2018-11-13T04:11:19.650Z,29.70
2018-11-13T04:11:57.550Z,29.37
2018-11-13T04:12:35.628Z,37.33
2018-11-13T04:13:13.609Z,22.33
2018-11-13T04:13:51.724Z,33.00
2018-11-13T04:14:29.795Z,29.07
2018-11-13T04:15:09.067Z,30.20
2018-11-13T04:15:49.522Z,45.33
2018-11-13T04:16:27.535Z,25.30
2018-11-13T04:17:06.420Z,34.43
2018-11-13T04:17:45.406Z,30.37
2018-11-13T04:18:23.206Z,27.47
2018-11-13T04:19:01.071Z,31.57
2018-11-13T04:19:41.975Z,30.13
2018-11-13T04:20:21.056Z,25.30
2018-11-13T04:21:01.306Z,24.97
2018-11-13T04:21:39.936Z,23.93
2018-11-13T04:22:17.901Z,22.23
2018-11-13T04:22:55.882Z,22.10
2018-11-13T04:23:33.955Z,25.40
2018-11-13T04:24:11.937Z,24.90
2018-11-13T04:24:50.011Z,26.33
2018-11-13T04:25:27.907Z,27.73
2018-11-13T04:26:06.684Z,29.37
2018-11-13T04:26:44.512Z,27.97
2018-11-13T04:27:22.502Z,29.63
2018-11-13T04:28:00.321Z,36.80
2018-11-13T04:28:38.261Z,26.07
2018-11-13T04:29:16.111Z,28.63
2018-11-13T04:29:54.528Z,30.77
2018-11-13T04:30:32.400Z,25.23
2018-11-13T04:31:10.359Z,26.80
2018-11-13T04:31:48.305Z,27.33
2018-11-13T04:32:26.197Z,32.00
2018-11-13T04:33:04.263Z,31.43
2018-11-13T04:33:42.132Z,28.80
2018-11-13T04:34:20.049Z,24.60
2018-11-13T04:34:58.974Z,25.87
2018-11-13T04:35:37.762Z,31.40
2018-11-13T04:36:16.327Z,30.75
2018-11-13T04:36:54.139Z,29.50
2018-11-13T04:37:32.569Z,34.73
2018-11-13T04:38:10.464Z,33.27
2018-11-13T04:38:48.373Z,45.33
2018-11-13T04:39:26.181Z,27.80
2018-11-13T04:40:04.364Z,28.40
2018-11-13T04:40:48.359Z,28.80
2018-11-13T04:41:26.332Z,32.57
2018-11-13T04:42:05.239Z,31.43
2018-11-13T04:42:44.031Z,28.93
2018-11-13T04:43:21.890Z,38.50
2018-11-13T04:43:59.931Z,27.73
2018-11-13T04:44:38.762Z,36.03
2018-11-13T04:45:17.826Z,33.80
2018-11-13T04:45:55.626Z,34.57
2018-11-13T04:46:33.594Z,30.70
2018-11-13T04:47:11.521Z,30.50
2018-11-13T04:47:51.237Z,35.07
2018-11-13T04:48:29.539Z,27.63
2018-11-13T04:49:07.658Z,28.00
2018-11-13T04:49:45.580Z,33.80
2018-11-13T04:50:24.374Z,26.37
2018-11-13T04:51:02.454Z,25.63
2018-11-13T04:51:40.724Z,29.13
2018-11-13T04:52:18.636Z,31.27
2018-11-13T04:52:56.479Z,25.37
2018-11-13T04:53:35.646Z,33.80
2018-11-13T04:54:13.397Z,35.23
2018-11-13T04:54:51.355Z,28.33
2018-11-13T04:55:30.328Z,31.70
2018-11-13T04:56:07.712Z,27.60
2018-11-13T04:56:45.581Z,32.33
2018-11-13T04:57:23.491Z,27.27
2018-11-13T04:58:02.013Z,35.27
2018-11-13T04:58:40.688Z,41.23
2018-11-13T04:59:19.367Z,29.60
2018-11-13T04:59:59.983Z,34.37
2018-11-13T05:00:38.691Z,35.17
2018-11-13T05:01:16.563Z,34.60
2018-11-13T05:01:54.496Z,35.20
2018-11-13T05:02:32.370Z,27.13
2018-11-13T05:03:10.485Z,31.43
2018-11-13T05:03:48.507Z,31.70
2018-11-13T05:04:26.495Z,63.13
2018-11-13T05:05:04.369Z,45.27
2018-11-13T05:05:42.506Z,28.60
2018-11-13T05:06:21.531Z,31.53
2018-11-13T05:07:03.258Z,30.10
2018-11-13T05:07:41.088Z,31.53
2018-11-13T05:08:19.048Z,26.70
2018-11-13T05:08:57.004Z,35.10
2018-11-13T05:09:35.205Z,34.57
2018-11-13T05:10:14.744Z,28.60
2018-11-13T05:10:53.036Z,22.77
2018-11-13T05:11:31.085Z,37.43
2018-11-13T05:12:09.304Z,40.70
2018-11-13T05:12:48.027Z,30.00
2018-11-13T05:13:25.894Z,40.20
2018-11-13T05:14:04.964Z,32.37
2018-11-13T05:14:43.112Z,29.50
2018-11-13T05:15:21.472Z,32.23
2018-11-13T05:15:59.316Z,31.07
2018-11-13T05:16:37.097Z,30.30
2018-11-13T05:17:14.997Z,21.90
2018-11-13T05:17:52.836Z,27.57
2018-11-13T05:18:30.948Z,23.70
2018-11-13T05:19:09.606Z,25.60
2018-11-13T05:19:48.247Z,28.80
2018-11-13T05:20:26.374Z,31.67
2018-11-13T05:21:04.487Z,27.67
2018-11-13T05:21:43.083Z,28.87
2018-11-13T05:22:21.292Z,26.73
2018-11-13T05:22:59.133Z,30.20
2018-11-13T05:23:37.038Z,25.50
2018-11-13T05:24:15.507Z,26.23
2018-11-13T05:24:53.356Z,30.93
2018-11-13T05:25:31.253Z,29.17
2018-11-13T05:26:09.159Z,32.20
2018-11-13T05:26:46.955Z,24.73
2018-11-13T05:27:24.882Z,31.37
2018-11-13T05:28:02.721Z,20.13
2018-11-13T05:28:41.507Z,25.20
2018-11-13T05:29:19.498Z,29.23
2018-11-13T05:29:58.328Z,28.63
2018-11-13T05:30:36.138Z,21.70
2018-11-13T05:31:14.009Z,26.03
2018-11-13T05:31:51.949Z,30.33
2018-11-13T05:32:30.155Z,32.40
2018-11-13T05:33:08.231Z,25.23
2018-11-13T05:33:46.064Z,24.03
2018-11-13T05:34:24.098Z,24.43
2018-11-13T05:35:02.287Z,15.87
2018-11-13T05:35:41.532Z,18.87
2018-11-13T05:36:19.348Z,19.43
2018-11-13T05:36:57.384Z,22.13
2018-11-13T05:37:35.188Z,24.43
2018-11-13T05:38:13.281Z,19.07
2018-11-13T05:38:51.414Z,21.97
2018-11-13T05:39:29.370Z,25.43
2018-11-13T05:40:07.667Z,26.67
2018-11-13T05:40:45.650Z,19.17
2018-11-13T05:41:23.622Z,29.70
2018-11-13T05:42:01.599Z,21.63
2018-11-13T05:42:39.548Z,18.57
2018-11-13T05:43:17.408Z,20.90
2018-11-13T05:43:55.287Z,19.13
2018-11-13T05:44:33.173Z,20.33
2018-11-13T05:45:12.944Z,21.50
2018-11-13T05:45:50.934Z,23.03
2018-11-13T05:46:28.864Z,21.13
2018-11-13T05:47:06.761Z,16.10
2018-11-13T05:47:44.919Z,20.00
2018-11-13T05:48:22.761Z,25.67
2018-11-13T05:49:00.625Z,14.83
2018-11-13T05:49:38.652Z,22.50
2018-11-13T05:50:17.804Z,18.93
2018-11-13T05:50:56.864Z,19.40
2018-11-13T05:51:34.720Z,15.53
2018-11-13T05:52:12.662Z,15.77
2018-11-13T05:52:52.220Z,15.40
2018-11-13T05:53:30.158Z,16.07
2018-11-13T05:54:08.178Z,21.07
2018-11-13T05:54:45.965Z,19.13
2018-11-13T05:55:24.079Z,19.93
2018-11-13T05:56:01.965Z,16.40
2018-11-13T05:56:39.794Z,18.27
2018-11-13T05:57:18.223Z,16.47
2018-11-13T05:57:56.133Z,27.77
2018-11-13T05:58:34.335Z,19.70
2018-11-13T05:59:12.162Z,26.53
2018-11-13T05:59:50.044Z,30.20
2018-11-13T06:00:33.251Z,27.60
2018-11-13T06:01:11.528Z,21.20
2018-11-13T06:01:49.324Z,21.83
2018-11-13T06:02:27.199Z,22.63
2018-11-13T06:03:05.849Z,17.40
2018-11-13T06:03:43.641Z,21.03
2018-11-13T06:04:21.577Z,17.20
2018-11-13T06:04:59.358Z,24.07
2018-11-13T06:05:37.182Z,17.80
2018-11-13T06:06:15.830Z,19.40
2018-11-13T06:06:53.712Z,19.03
2018-11-13T06:07:31.567Z,18.90
2018-11-13T06:08:09.460Z,18.70
2018-11-13T06:08:47.539Z,21.00
2018-11-13T06:09:25.433Z,23.73
2018-11-13T06:10:03.369Z,22.47
2018-11-13T06:10:41.280Z,23.60
2018-11-13T06:11:20.203Z,17.73
2018-11-13T06:11:58.353Z,19.90
2018-11-13T06:12:36.230Z,17.33
2018-11-13T06:13:14.253Z,16.10
2018-11-13T06:13:52.047Z,24.37
2018-11-13T06:14:30.146Z,16.73
2018-11-13T06:15:08.419Z,22.90
2018-11-13T06:15:46.292Z,20.10
2018-11-13T06:16:24.194Z,20.33
2018-11-13T06:17:02.070Z,23.30
2018-11-13T06:17:39.979Z,18.37
2018-11-13T06:18:17.986Z,18.20
2018-11-13T06:18:55.907Z,17.50
2018-11-13T06:19:33.841Z,22.60
2018-11-13T06:20:14.076Z,22.70
2018-11-13T06:20:52.012Z,39.63
2018-11-13T06:21:29.871Z,24.53
2018-11-13T06:22:08.142Z,24.57
2018-11-13T06:22:46.106Z,23.23
2018-11-13T06:23:24.410Z,34.03
2018-11-13T06:24:02.402Z,29.60
2018-11-13T06:24:40.334Z,25.20
2018-11-13T06:25:19.240Z,23.13
2018-11-13T06:25:57.235Z,18.10
2018-11-13T06:26:35.063Z,20.60
2018-11-13T06:27:13.303Z,24.40
2018-11-13T06:27:51.641Z,22.27
2018-11-13T06:28:29.616Z,26.53
2018-11-13T06:29:07.409Z,22.77
2018-11-13T06:29:45.401Z,23.63
2018-11-13T06:30:25.319Z,21.13
2018-11-13T06:31:03.169Z,21.67
2018-11-13T06:31:41.016Z,20.90
2018-11-13T06:32:18.832Z,24.83
2018-11-13T06:32:56.884Z,17.87
2018-11-13T06:33:34.860Z,22.90
2018-11-13T06:34:12.748Z,28.43
2018-11-13T06:34:50.577Z,27.93
2018-11-13T06:35:28.475Z,22.13
2018-11-13T06:36:06.401Z,27.37
2018-11-13T06:36:44.429Z,19.57
2018-11-13T06:37:22.292Z,20.27
2018-11-13T06:38:00.392Z,19.70
2018-11-13T06:38:38.463Z,23.13
2018-11-13T06:39:17.070Z,28.23
2018-11-13T06:39:54.927Z,28.43
2018-11-13T06:40:33.114Z,24.07
2018-11-13T06:41:11.102Z,19.67
2018-11-13T06:41:49.864Z,31.13
2018-11-13T06:42:28.278Z,22.10
2018-11-13T06:43:06.247Z,20.73
2018-11-13T06:43:44.115Z,22.03
2018-11-13T06:44:22.104Z,18.20
2018-11-13T06:44:59.996Z,15.80
2018-11-13T06:45:37.827Z,23.77
2018-11-13T06:46:15.838Z,25.20
2018-11-13T06:46:53.747Z,20.60
2018-11-13T06:47:32.574Z,16.97
2018-11-13T06:48:10.605Z,19.97
2018-11-13T06:48:48.519Z,19.83
2018-11-13T06:49:26.514Z,17.13
2018-11-13T06:50:04.479Z,20.93
2018-11-13T06:50:42.392Z,26.37
2018-11-13T06:51:20.309Z,24.33
2018-11-13T06:51:58.484Z,19.13
2018-11-13T06:52:36.350Z,19.33
2018-11-13T06:53:14.317Z,21.70
2018-11-13T06:54:01.033Z,16.87
2018-11-13T06:54:53.647Z,17.40
2018-11-13T06:55:35.849Z,14.90
2018-11-13T06:56:13.818Z,22.70
2018-11-13T06:56:51.694Z,16.13
2018-11-13T06:57:29.556Z,20.50
2018-11-13T06:58:07.491Z,19.73
2018-11-13T06:58:45.398Z,18.50
2018-11-13T06:59:23.356Z,20.80
2018-11-13T07:00:02.464Z,17.10
2018-11-13T07:00:41.183Z,23.13
2018-11-13T07:01:19.368Z,17.77
2018-11-13T07:01:57.170Z,17.67
2018-11-13T07:02:35.252Z,23.50
2018-11-13T07:03:13.249Z,15.60
2018-11-13T07:03:51.088Z,19.53
2018-11-13T07:04:29.173Z,16.90
2018-11-13T07:05:07.493Z,19.13
2018-11-13T07:05:45.436Z,21.93
2018-11-13T07:06:23.363Z,17.87
2018-11-13T07:07:01.499Z,18.57
2018-11-13T07:07:39.381Z,15.97
2018-11-13T07:08:17.696Z,20.07
2018-11-13T07:08:55.571Z,16.73
2018-11-13T07:09:33.388Z,17.10
2018-11-13T07:10:13.515Z,24.63
2018-11-13T07:10:51.520Z,15.80
2018-11-13T07:11:29.435Z,21.30
2018-11-13T07:12:07.317Z,15.53
2018-11-13T07:12:46.793Z,13.50
2018-11-13T07:13:24.973Z,16.80
2018-11-13T07:14:02.876Z,15.70
2018-11-13T07:14:40.995Z,17.40
2018-11-13T07:15:20.496Z,15.30
2018-11-13T07:15:58.417Z,19.70
2018-11-13T07:16:37.321Z,22.80
2018-11-13T07:17:15.287Z,18.90
2018-11-13T07:17:54.779Z,24.50
2018-11-13T07:18:32.725Z,21.23
2018-11-13T07:19:10.941Z,19.50
2018-11-13T07:19:48.793Z,13.10
2018-11-13T07:20:28.700Z,32.90
2018-11-13T07:21:06.608Z,14.77
2018-11-13T07:21:44.628Z,15.67
2018-11-13T07:22:22.499Z,16.07
2018-11-13T07:23:00.670Z,16.37
2018-11-13T07:23:38.901Z,15.07
2018-11-13T07:24:16.905Z,25.87
2018-11-13T07:24:55.036Z,15.03
2018-11-13T07:25:33.233Z,20.40
2018-11-13T07:26:12.170Z,15.37
2018-11-13T07:26:50.823Z,20.77
2018-11-13T07:27:28.735Z,21.60
2018-11-13T07:28:06.793Z,15.67
2018-11-13T07:28:44.865Z,15.40
2018-11-13T07:29:26.020Z,15.67
2018-11-13T07:30:04.040Z,18.97
2018-11-13T07:30:41.920Z,19.83
2018-11-13T07:31:19.853Z,15.23
2018-11-13T07:31:58.609Z,22.33
2018-11-13T07:32:36.585Z,14.77
2018-11-13T07:33:14.414Z,17.10
2018-11-13T07:33:52.316Z,16.90
2018-11-13T07:34:30.391Z,18.20
2018-11-13T07:35:10.595Z,15.87
2018-11-13T07:35:48.615Z,15.50
2018-11-13T07:36:26.632Z,13.37
2018-11-13T07:37:05.418Z,18.33
2018-11-13T07:37:48.993Z,14.50
2018-11-13T07:38:27.008Z,18.80
2018-11-13T07:39:05.380Z,16.73
2018-11-13T07:39:43.223Z,14.93
2018-11-13T07:40:21.180Z,14.53
2018-11-13T07:41:00.364Z,12.03
2018-11-13T07:41:38.295Z,20.83
2018-11-13T07:42:16.890Z,17.67
2018-11-13T07:42:55.120Z,15.10
2018-11-13T07:43:33.088Z,16.63
2018-11-13T07:44:11.368Z,17.20
2018-11-13T07:44:49.260Z,11.60
2018-11-13T07:45:27.392Z,11.13
2018-11-13T07:46:05.227Z,15.83
2018-11-13T07:46:43.215Z,13.90
2018-11-13T07:47:21.257Z,12.27
2018-11-13T07:47:59.346Z,12.50
2018-11-13T07:48:37.434Z,12.97
2018-11-13T07:49:15.304Z,18.30
2018-11-13T07:49:53.365Z,14.17
2018-11-13T07:50:31.249Z,18.53
2018-11-13T07:51:09.524Z,20.90
2018-11-13T07:51:47.477Z,12.67
2018-11-13T07:52:25.272Z,14.60
2018-11-13T07:53:03.334Z,11.43
2018-11-13T07:53:41.202Z,16.00
2018-11-13T07:54:19.028Z,15.47
2018-11-13T07:54:56.905Z,11.93
2018-11-13T07:55:34.887Z,13.10
2018-11-13T07:56:12.772Z,12.33
2018-11-13T07:56:50.758Z,10.97
2018-11-13T07:57:28.548Z,10.93
2018-11-13T07:58:06.423Z,14.40
2018-11-13T07:58:45.583Z,16.03
2018-11-13T07:59:23.454Z,11.87
2018-11-13T08:00:01.344Z,10.90
2018-11-13T08:00:39.243Z,24.83
2018-11-13T08:01:17.155Z,11.03
2018-11-13T08:01:55.156Z,11.07
2018-11-13T08:02:32.992Z,11.40
2018-11-13T08:03:34.912Z,10.43
2018-11-13T08:04:12.748Z,10.10
2018-11-13T08:04:50.623Z,9.97
2018-11-13T08:05:28.639Z,12.33
2018-11-13T08:06:07.327Z,10.57
2018-11-13T08:06:45.443Z,10.23
2018-11-13T08:07:23.368Z,9.63
2018-11-13T08:08:01.438Z,12.67
2018-11-13T08:08:39.416Z,10.63
2018-11-13T08:09:17.399Z,9.03
2018-11-13T08:09:56.373Z,9.83
2018-11-13T08:10:34.291Z,11.80
2018-11-13T08:11:12.412Z,11.63
2018-11-13T08:11:50.208Z,8.73
2018-11-13T08:12:28.266Z,10.30
2018-11-13T08:13:06.395Z,9.70
2018-11-13T08:13:44.284Z,9.87
2018-11-13T08:14:23.526Z,9.00
2018-11-13T08:15:01.353Z,11.37
2018-11-13T08:15:39.210Z,11.63
2018-11-13T08:16:17.332Z,8.80
2018-11-13T08:16:55.210Z,14.97
2018-11-13T08:17:33.262Z,6.90
2018-11-13T08:18:11.077Z,17.50